Time;durP1;ratioP1;P1;durP2;ratioP2;P2;SDS_P1;SDS_P2;PMS_P1;PMS_P2;Temp;Humidity;BMP_temperature;BMP_pressure;BME280_temperature;BME280_humidity;BME280_pressure;Samples;Min_cycle;Max_cycle;Signal;HPM_P1;HPM_P2
2022/11/08 00:01:40;;;;;;;15.68;2.92;;;13.70;99.90;;;;;;4954929;29;20054;-81
2022/11/08 00:04:12;;;;;;;12.82;3.47;;;13.70;99.90;;;;;;4921617;29;20043;-81
2022/11/08 00:14:51;;;;;;;12.90;1.95;;;13.70;99.90;;;;;;4950428;29;20054;-81
2022/11/08 00:17:19;;;;;;;8.80;2.35;;;13.60;99.90;;;;;;4938007;29;20047;-81
2022/11/08 00:19:45;;;;;;;13.10;2.75;;;13.60;99.90;;;;;;4938385;29;20511;-81
2022/11/08 00:22:11;;;;;;;13.88;2.65;;;13.70;99.90;;;;;;4922639;29;20147;-81
2022/11/08 00:24:37;;;;;;;8.90;2.53;;;13.60;99.90;;;;;;4938675;29;20086;-81
2022/11/08 00:27:05;;;;;;;7.85;2.28;;;13.60;99.90;;;;;;4922703;29;20042;-81
2022/11/08 00:29:34;;;;;;;13.57;2.90;;;13.60;99.90;;;;;;4938174;29;20035;-81
2022/11/08 00:31:59;;;;;;;9.82;2.47;;;13.50;99.90;;;;;;4954187;28;20070;-81
2022/11/08 00:34:25;;;;;;;12.45;2.35;;;13.50;99.90;;;;;;4922572;29;20528;-81
2022/11/08 00:36:52;;;;;;;10.55;2.38;;;13.40;99.90;;;;;;4938053;29;20407;-82
2022/11/08 00:39:18;;;;;;;9.68;2.60;;;13.40;99.90;;;;;;4922681;29;20046;-81
2022/11/08 00:41:44;;;;;;;17.52;3.30;;;13.40;99.90;;;;;;4937976;29;20058;-81
2022/11/08 00:44:10;;;;;;;14.70;3.28;;;13.40;99.90;;;;;;4922348;29;20131;-81
2022/11/08 00:46:37;;;;;;;7.35;2.35;;;13.30;99.90;;;;;;4922482;29;20049;-81
2022/11/08 00:49:04;;;;;;;8.68;2.20;;;13.20;99.90;;;;;;4938172;29;20145;-81
2022/11/08 00:51:30;;;;;;;11.98;3.38;;;13.10;99.90;;;;;;4954269;29;20118;-82
2022/11/08 00:53:56;;;;;;;11.43;2.55;;;13.10;99.90;;;;;;4922417;29;20054;-81
2022/11/08 00:56:22;;;;;;;11.90;2.55;;;13.10;99.90;;;;;;4922193;29;20043;-81
2022/11/08 00:58:48;;;;;;;15.27;2.80;;;13.10;99.90;;;;;;4922636;29;20143;-81
2022/11/08 01:01:16;;;;;;;9.65;2.60;;;13.00;99.90;;;;;;4922417;29;20142;-81
2022/11/08 01:03:42;;;;;;;9.18;2.50;;;13.10;99.90;;;;;;4953380;29;20075;-81
2022/11/08 01:06:09;;;;;;;11.20;2.92;;;13.00;99.90;;;;;;4921793;29;20124;-81
2022/11/08 01:08:35;;;;;;;10.45;2.92;;;13.00;99.90;;;;;;4921952;29;20229;-81
2022/11/08 01:11:04;;;;;;;15.23;2.92;;;13.00;99.90;;;;;;4938259;29;20103;-81
2022/11/08 01:13:31;;;;;;;15.38;2.90;;;12.90;99.90;;;;;;4953789;29;20496;-81
2022/11/08 01:15:57;;;;;;;8.68;2.75;;;13.00;99.90;;;;;;4950458;29;20047;-81
2022/11/08 01:18:23;;;;;;;9.25;2.97;;;12.90;99.90;;;;;;4935132;29;20048;-81
2022/11/08 01:20:49;;;;;;;9.68;2.50;;;13.00;99.90;;;;;;4919701;29;20093;-81
2022/11/08 01:23:17;;;;;;;10.00;2.40;;;13.00;99.90;;;;;;4954066;29;20078;-81
2022/11/08 01:25:44;;;;;;;8.00;2.78;;;13.00;99.90;;;;;;4937965;29;20078;-81
2022/11/08 01:28:11;;;;;;;12.73;2.85;;;13.00;99.90;;;;;;4954328;28;20058;-81
2022/11/08 01:30:39;;;;;;;7.00;2.60;;;12.90;99.90;;;;;;4941058;29;20066;-81
2022/11/08 01:33:05;;;;;;;11.35;2.28;;;12.90;99.90;;;;;;4926370;29;20421;-81
2022/11/08 01:35:32;;;;;;;17.17;2.90;;;13.00;99.90;;;;;;4941346;29;20075;-81
2022/11/08 01:37:58;;;;;;;14.23;3.05;;;13.00;99.90;;;;;;4910420;29;20390;-80
2022/11/08 01:40:25;;;;;;;9.45;2.45;;;13.00;99.90;;;;;;4941742;29;20479;-81
2022/11/08 01:42:52;;;;;;;7.93;2.22;;;13.00;99.90;;;;;;4924741;29;20040;-81
2022/11/08 01:45:55;;;;;;;8.40;2.30;;;13.00;99.90;;;;;;4956807;29;20049;-81
2022/11/08 01:48:23;;;;;;;9.70;2.60;;;12.90;99.90;;;;;;4940916;29;20059;-81
2022/11/08 01:50:50;;;;;;;10.63;2.60;;;12.90;99.90;;;;;;4957538;29;20059;-81
2022/11/08 01:53:17;;;;;;;11.88;3.20;;;12.90;99.90;;;;;;4925894;29;20133;-81
2022/11/08 01:55:42;;;;;;;10.60;2.22;;;12.90;99.90;;;;;;4941711;29;20039;-81
2022/11/08 01:58:19;;;;;;;6.75;2.22;;;12.90;99.90;;;;;;4941721;29;20102;-81
2022/11/08 02:00:44;;;;;;;9.95;2.63;;;12.90;99.90;;;;;;4941009;29;20042;-81
2022/11/08 02:03:14;;;;;;;10.88;2.60;;;12.90;99.90;;;;;;4925350;29;20046;-81
2022/11/08 02:05:40;;;;;;;10.63;2.28;;;12.80;99.90;;;;;;4957180;29;20047;-81
2022/11/08 02:08:35;;;;;;;12.70;2.90;;;12.80;99.90;;;;;;4941627;29;20097;-81
2022/11/08 02:11:02;;;;;;;5.90;2.05;;;12.80;99.90;;;;;;4940957;29;20531;-81
2022/11/08 02:13:29;;;;;;;7.72;2.47;;;12.80;99.90;;;;;;4957204;29;20475;-81
2022/11/08 02:15:55;;;;;;;6.10;2.22;;;12.80;99.90;;;;;;4940996;29;20039;-81
2022/11/08 02:18:23;;;;;;;10.95;2.92;;;12.80;99.90;;;;;;4925931;29;20039;-81
2022/11/08 02:20:52;;;;;;;11.00;2.45;;;12.70;99.90;;;;;;4926200;29;20043;-80
2022/11/08 02:23:26;;;;;;;10.10;2.80;;;12.70;99.90;;;;;;4951922;29;20044;-80
2022/11/08 02:25:52;;;;;;;10.35;3.03;;;12.60;99.90;;;;;;4957786;29;20039;-81
2022/11/08 02:28:18;;;;;;;11.10;2.72;;;12.60;99.90;;;;;;4938211;29;20043;-81
2022/11/08 02:30:44;;;;;;;10.65;2.47;;;12.50;99.90;;;;;;4941000;29;20082;-81
2022/11/08 02:33:18;;;;;;;9.45;2.67;;;12.50;99.90;;;;;;4925183;29;20031;-81
2022/11/08 02:35:48;;;;;;;7.07;2.60;;;12.40;99.90;;;;;;4956532;29;20119;-81
2022/11/08 02:38:13;;;;;;;8.10;2.53;;;12.40;99.90;;;;;;4941261;29;20459;-81
2022/11/08 02:40:48;;;;;;;10.60;2.90;;;12.30;99.90;;;;;;4922098;29;20118;-81
2022/11/08 02:43:13;;;;;;;8.45;2.90;;;12.30;99.90;;;;;;4937658;29;20054;-81
2022/11/08 02:45:39;;;;;;;11.75;2.90;;;12.30;99.90;;;;;;4920659;29;20043;-81
2022/11/08 02:48:05;;;;;;;10.40;3.13;;;12.30;99.90;;;;;;4890113;29;20094;-81
2022/11/08 02:50:31;;;;;;;6.97;2.58;;;12.20;99.90;;;;;;4921758;29;20044;-81
2022/11/08 02:52:57;;;;;;;8.60;2.85;;;12.20;99.90;;;;;;4921648;29;20043;-81
2022/11/08 02:55:23;;;;;;;9.00;2.78;;;12.20;99.90;;;;;;4933678;29;20373;-81
2022/11/08 02:57:48;;;;;;;7.05;2.28;;;12.20;99.90;;;;;;4940655;29;20104;-81
2022/11/08 03:00:14;;;;;;;8.50;2.53;;;12.10;99.90;;;;;;4924967;29;20186;-81
2022/11/08 03:02:40;;;;;;;8.85;2.67;;;12.20;99.90;;;;;;4940519;29;20085;-81
2022/11/08 03:05:06;;;;;;;10.13;2.85;;;12.10;99.90;;;;;;4924144;29;20488;-81
2022/11/08 03:07:32;;;;;;;9.63;2.63;;;12.20;99.90;;;;;;4921206;29;20404;-81
2022/11/08 03:09:57;;;;;;;11.90;2.95;;;12.20;99.90;;;;;;4908942;29;20038;-81
2022/11/08 03:12:23;;;;;;;11.10;2.80;;;12.20;99.90;;;;;;4939860;29;20102;-81
2022/11/08 03:14:48;;;;;;;10.82;3.05;;;12.10;99.90;;;;;;4924252;29;20046;-81
2022/11/08 03:17:14;;;;;;;10.88;2.88;;;12.20;99.90;;;;;;4924155;29;20046;-81
2022/11/08 03:19:40;;;;;;;7.18;2.80;;;12.10;99.90;;;;;;4924242;29;20143;-82
2022/11/08 03:22:05;;;;;;;8.63;2.85;;;12.10;99.90;;;;;;4923804;29;20488;-81
2022/11/08 03:24:32;;;;;;;7.95;2.45;;;12.10;99.90;;;;;;4936846;29;20047;-81
2022/11/08 03:26:58;;;;;;;9.55;2.80;;;12.20;99.90;;;;;;4939453;29;20043;-81
2022/11/08 03:29:24;;;;;;;8.13;2.63;;;12.10;99.90;;;;;;4955308;29;20043;-81
2022/11/08 03:31:49;;;;;;;6.20;2.75;;;12.10;99.90;;;;;;4955311;28;20043;-81
2022/11/08 03:34:15;;;;;;;8.57;3.05;;;12.10;99.90;;;;;;4923817;29;20046;-81
2022/11/08 03:36:41;;;;;;;10.85;2.65;;;12.10;99.90;;;;;;4939101;29;20050;-81
2022/11/08 03:39:07;;;;;;;7.05;2.72;;;12.00;99.90;;;;;;4919835;29;20105;-81
2022/11/08 03:41:32;;;;;;;7.82;2.10;;;12.00;99.90;;;;;;4916804;29;20110;-81
2022/11/08 03:43:58;;;;;;;9.18;2.70;;;11.90;99.90;;;;;;4939409;29;20512;-81
2022/11/08 03:46:23;;;;;;;11.82;3.35;;;12.00;99.90;;;;;;4923276;29;20043;-81
2022/11/08 03:48:49;;;;;;;9.75;3.10;;;12.00;99.90;;;;;;4939044;29;20058;-81
2022/11/08 03:51:15;;;;;;;11.82;3.00;;;11.90;99.90;;;;;;4922662;29;20039;-81
2022/11/08 03:53:41;;;;;;;13.80;2.90;;;11.90;99.90;;;;;;4923201;29;20054;-81
2022/11/08 03:56:06;;;;;;;8.32;2.90;;;11.90;99.90;;;;;;4907890;29;20043;-81
2022/11/08 03:58:32;;;;;;;6.63;2.47;;;11.80;99.90;;;;;;4922967;29;20480;-81
2022/11/08 04:01:03;;;;;;;9.63;2.67;;;11.80;99.90;;;;;;4939065;29;20129;-81
2022/11/08 04:03:28;;;;;;;9.70;2.65;;;11.80;99.90;;;;;;4938778;29;20047;-81
2022/11/08 04:05:54;;;;;;;8.65;2.65;;;11.80;99.90;;;;;;4907555;29;20357;-81
2022/11/08 04:08:20;;;;;;;6.95;2.25;;;11.80;99.90;;;;;;4907446;29;20045;-81
2022/11/08 04:10:46;;;;;;;8.70;2.50;;;11.80;99.90;;;;;;4923023;29;20462;-81
2022/11/08 04:15:57;;;;;;;8.60;2.35;;;11.70;99.90;;;;;;4936046;29;20095;-81
2022/11/08 04:21:21;;;;;;;9.65;2.50;;;11.70;99.90;;;;;;4927760;29;20050;-81
2022/11/08 04:23:51;;;;;;;10.52;2.88;;;11.60;99.90;;;;;;4938601;29;20384;-81
2022/11/08 04:26:18;;;;;;;8.50;2.50;;;11.60;99.90;;;;;;4938641;29;20491;-81
2022/11/08 04:28:44;;;;;;;8.05;2.08;;;11.60;99.90;;;;;;4938785;29;20042;-81
2022/11/08 04:31:15;;;;;;;5.93;2.05;;;11.50;99.90;;;;;;4922520;29;20363;-81
2022/11/08 04:33:41;;;;;;;6.85;2.30;;;11.50;99.90;;;;;;4935590;29;20047;-81
2022/11/08 04:36:11;;;;;;;7.70;2.63;;;11.50;99.90;;;;;;4938279;29;20219;-81
2022/11/08 04:38:36;;;;;;;5.40;2.65;;;11.50;99.90;;;;;;4938255;29;20042;-81
2022/11/08 04:41:13;;;;;;;9.88;2.60;;;11.50;99.90;;;;;;4919275;29;20039;-81
2022/11/08 04:43:39;;;;;;;6.88;2.22;;;11.50;99.90;;;;;;4919733;29;20126;-81
2022/11/08 04:46:15;;;;;;;11.88;2.60;;;11.40;99.90;;;;;;4921644;29;20541;-81
2022/11/08 04:48:42;;;;;;;7.70;2.83;;;11.40;99.90;;;;;;4954008;29;20138;-81
2022/11/08 04:51:29;;;;;;;8.65;2.78;;;11.40;99.90;;;;;;4938144;28;20051;-81
2022/11/08 04:53:57;;;;;;;9.05;2.40;;;11.50;99.90;;;;;;4938273;29;20126;-81
2022/11/08 04:56:23;;;;;;;9.82;2.38;;;11.40;99.90;;;;;;4922825;29;20043;-81
2022/11/08 04:58:51;;;;;;;6.43;2.30;;;11.40;99.90;;;;;;4929187;29;20039;-81
2022/11/08 05:01:20;;;;;;;10.73;2.40;;;11.40;99.90;;;;;;4937499;29;20408;-81
2022/11/08 05:03:47;;;;;;;6.13;2.63;;;11.40;99.90;;;;;;4937813;29;20464;-81
2022/11/08 05:06:16;;;;;;;5.60;2.05;;;11.40;99.90;;;;;;4903585;29;20130;-81
2022/11/08 05:08:42;;;;;;;7.40;2.50;;;11.40;99.90;;;;;;4919151;29;20476;-81
2022/11/08 05:11:11;;;;;;;8.60;2.75;;;11.40;99.90;;;;;;4938113;29;20039;-81
2022/11/08 05:13:37;;;;;;;6.97;2.45;;;11.40;99.90;;;;;;4954087;29;20492;-81
2022/11/08 05:16:13;;;;;;;9.38;2.58;;;11.40;99.90;;;;;;4953158;29;20074;-81
2022/11/08 05:18:39;;;;;;;5.85;2.00;;;11.40;99.90;;;;;;4938338;29;20047;-81
2022/11/08 05:23:50;;;;;;;8.93;2.80;;;11.30;99.90;;;;;;4953937;29;20415;-81
2022/11/08 05:26:18;;;;;;;7.15;2.13;;;11.30;99.90;;;;;;4937833;29;20046;-81
2022/11/08 05:28:44;;;;;;;6.85;2.50;;;11.30;99.90;;;;;;4938050;29;20105;-81
2022/11/08 05:31:09;;;;;;;9.43;2.53;;;11.20;99.90;;;;;;4936269;29;20146;-81
2022/11/08 05:33:35;;;;;;;12.65;2.95;;;11.20;99.90;;;;;;4906382;29;20078;-81
2022/11/08 05:36:02;;;;;;;6.00;2.08;;;11.20;99.90;;;;;;4937784;29;20039;-80
2022/11/08 05:38:30;;;;;;;8.75;1.77;;;11.30;99.90;;;;;;4953933;29;20097;-81
2022/11/08 05:41:20;;;;;;;10.32;2.50;;;11.20;99.90;;;;;;4938221;29;20102;-81
2022/11/08 05:43:48;;;;;;;6.13;2.40;;;11.30;99.90;;;;;;4952830;29;20166;-82
2022/11/08 05:46:15;;;;;;;6.50;2.08;;;11.20;99.90;;;;;;4938077;29;20039;-81
2022/11/08 05:48:42;;;;;;;8.68;2.20;;;11.20;99.90;;;;;;4938095;29;20043;-81
2022/11/08 05:51:08;;;;;;;6.03;1.95;;;11.40;99.90;;;;;;4938856;29;20035;-81
2022/11/08 05:53:33;;;;;;;6.57;2.22;;;11.20;99.90;;;;;;4931150;29;20075;-80
2022/11/08 05:56:03;;;;;;;11.80;1.90;;;11.30;99.90;;;;;;4916887;29;20138;-81
2022/11/08 05:58:31;;;;;;;6.07;1.83;;;11.30;99.90;;;;;;4906942;29;20111;-81
2022/11/08 06:01:02;;;;;;;8.30;2.10;;;11.70;99.90;;;;;;4937561;29;20042;-81
2022/11/08 06:03:28;;;;;;;6.93;1.98;;;11.40;99.90;;;;;;4922139;29;20043;-81
2022/11/08 06:05:54;;;;;;;5.72;1.67;;;11.40;99.90;;;;;;4937723;29;20141;-81
2022/11/08 06:08:19;;;;;;;9.05;2.00;;;11.40;99.90;;;;;;4937451;29;20122;-81
2022/11/08 06:10:45;;;;;;;4.93;2.05;;;11.50;99.90;;;;;;4918624;29;20046;-81
2022/11/08 06:13:11;;;;;;;6.10;2.20;;;11.50;99.90;;;;;;4930132;29;20107;-81
2022/11/08 06:15:37;;;;;;;3.47;1.65;;;11.40;99.90;;;;;;4937775;29;20561;-81
2022/11/08 06:18:04;;;;;;;6.53;2.28;;;11.40;99.90;;;;;;4910389;29;20066;-81
2022/11/08 06:20:30;;;;;;;8.15;1.80;;;11.40;99.90;;;;;;4933987;29;20099;-81
2022/11/08 06:22:56;;;;;;;4.75;1.80;;;11.40;99.90;;;;;;4939462;29;20035;-81
2022/11/08 06:25:22;;;;;;;6.75;2.20;;;11.40;99.90;;;;;;4940634;29;20480;-81
2022/11/08 06:27:47;;;;;;;5.28;1.90;;;11.40;99.90;;;;;;4940667;29;20090;-81
2022/11/08 06:30:13;;;;;;;8.15;2.50;;;11.40;99.90;;;;;;4924933;29;20051;-81
2022/11/08 06:32:39;;;;;;;7.70;2.10;;;11.40;99.90;;;;;;4930433;29;20043;-81
2022/11/08 06:35:06;;;;;;;5.68;1.85;;;11.40;99.90;;;;;;4936078;29;20097;-82
2022/11/08 06:37:32;;;;;;;5.50;1.80;;;11.40;99.90;;;;;;4940956;29;20047;-81
2022/11/08 06:39:58;;;;;;;10.18;2.80;;;11.40;99.90;;;;;;4937925;29;20040;-81
2022/11/08 06:42:24;;;;;;;5.97;1.90;;;11.50;99.90;;;;;;4918141;29;20381;-81
2022/11/08 06:44:50;;;;;;;5.75;2.17;;;11.40;99.90;;;;;;4950557;29;20058;-81
2022/11/08 06:47:16;;;;;;;5.03;2.03;;;11.50;99.90;;;;;;4936581;29;20043;-80
2022/11/08 06:49:42;;;;;;;7.60;2.35;;;11.50;99.90;;;;;;4935791;29;20062;-81
2022/11/08 06:52:08;;;;;;;7.68;2.67;;;11.50;99.90;;;;;;4931002;29;20055;-81
2022/11/08 06:54:34;;;;;;;8.50;2.85;;;11.50;99.90;;;;;;4945870;29;20533;-81
2022/11/08 06:57:00;;;;;;;7.35;3.20;;;11.50;99.90;;;;;;4934424;29;20051;-81
2022/11/08 06:59:27;;;;;;;8.70;2.70;;;11.50;99.90;;;;;;4940095;29;20047;-81
2022/11/08 07:01:53;;;;;;;7.53;2.25;;;11.50;99.90;;;;;;4940137;29;20046;-81
2022/11/08 07:04:18;;;;;;;6.55;2.30;;;11.50;99.90;;;;;;4939939;29;20047;-81
2022/11/08 07:06:44;;;;;;;8.45;2.97;;;11.50;99.90;;;;;;4924131;29;20043;-81
2022/11/08 07:09:10;;;;;;;8.43;2.53;;;11.60;99.90;;;;;;4939804;29;20037;-81
2022/11/08 07:11:36;;;;;;;7.78;2.78;;;11.60;99.90;;;;;;4923758;29;20423;-81
2022/11/08 07:14:01;;;;;;;8.00;2.70;;;11.60;99.90;;;;;;4924221;29;20074;-81
2022/11/08 07:16:27;;;;;;;5.63;2.88;;;11.60;99.90;;;;;;4924111;29;20488;-83
2022/11/08 07:18:54;;;;;;;5.60;2.92;;;11.70;99.90;;;;;;4908017;29;20046;-79
2022/11/08 07:21:21;;;;;;;8.40;2.92;;;11.70;99.90;;;;;;4923807;29;20039;-80
2022/11/08 07:23:47;;;;;;;9.23;3.03;;;11.70;99.90;;;;;;4955043;29;20043;-80
2022/11/08 07:26:13;;;;;;;11.10;3.05;;;11.70;99.90;;;;;;4922932;29;20043;-80
2022/11/08 07:28:39;;;;;;;5.32;2.90;;;11.80;99.90;;;;;;4939458;29;20035;-81
2022/11/08 07:31:06;;;;;;;6.00;2.95;;;11.80;99.90;;;;;;4939153;29;20483;-79
2022/11/08 07:33:32;;;;;;;8.65;3.00;;;11.80;99.90;;;;;;4938722;29;20043;-79
2022/11/08 07:35:58;;;;;;;7.88;2.70;;;11.80;99.90;;;;;;4938994;29;20053;-80
2022/11/08 07:38:25;;;;;;;9.95;3.10;;;11.90;99.90;;;;;;4938777;29;20051;-80
2022/11/08 07:40:54;;;;;;;11.63;3.83;;;11.90;99.90;;;;;;4923254;29;20050;-80
2022/11/08 07:43:19;;;;;;;6.25;3.00;;;11.90;99.90;;;;;;4923703;29;20043;-80
2022/11/08 07:45:45;;;;;;;8.75;3.47;;;11.90;99.90;;;;;;4907319;29;20035;-79
2022/11/08 07:48:12;;;;;;;9.48;3.55;;;12.10;99.90;;;;;;4954839;29;20196;-80
2022/11/08 07:50:39;;;;;;;7.57;2.83;;;12.00;99.90;;;;;;4938567;29;20046;-80
2022/11/08 07:53:05;;;;;;;8.57;3.60;;;12.10;99.90;;;;;;4922909;29;20483;-81
2022/11/08 07:55:30;;;;;;;9.07;3.00;;;12.00;99.90;;;;;;4923583;29;20134;-82
2022/11/08 07:58:00;;;;;;;8.05;3.00;;;12.10;99.90;;;;;;4924032;29;20062;-86
2022/11/08 08:00:27;;;;;;;7.75;2.95;;;12.10;99.90;;;;;;4923866;29;20098;-81
2022/11/08 08:02:58;;;;;;;9.65;3.53;;;12.20;99.90;;;;;;4923731;29;20127;-82
2022/11/08 08:05:24;;;;;;;6.80;2.92;;;12.30;99.90;;;;;;4938743;29;20444;-82
2022/11/08 08:07:50;;;;;;;9.98;2.95;;;12.30;99.90;;;;;;4938330;29;20043;-83
2022/11/08 08:10:16;;;;;;;7.70;3.13;;;12.40;99.90;;;;;;4923211;29;20039;-81
2022/11/08 08:12:41;;;;;;;5.43;2.63;;;12.40;99.90;;;;;;4923449;29;20063;-81
2022/11/08 08:15:07;;;;;;;7.18;3.08;;;12.50;99.90;;;;;;4920131;29;20456;-82
2022/11/08 08:17:33;;;;;;;8.45;2.80;;;12.50;99.90;;;;;;4904396;29;20365;-82
2022/11/08 08:19:59;;;;;;;6.43;3.33;;;12.60;99.90;;;;;;4932796;29;20054;-82
2022/11/08 08:22:24;;;;;;;6.50;3.10;;;12.60;99.90;;;;;;4921329;29;20492;-83
2022/11/08 08:24:50;;;;;;;5.35;2.78;;;12.60;99.90;;;;;;4920626;29;20043;-81
2022/11/08 08:27:16;;;;;;;5.05;2.03;;;12.60;99.90;;;;;;4938456;29;20050;-82
2022/11/08 08:29:41;;;;;;;8.82;2.63;;;12.60;99.90;;;;;;4938241;29;20042;-82
2022/11/08 08:32:07;;;;;;;8.32;3.10;;;12.60;99.90;;;;;;4907006;29;20035;-81
2022/11/08 08:34:33;;;;;;;8.38;2.88;;;12.70;99.90;;;;;;4919822;29;20035;-81
2022/11/08 08:36:58;;;;;;;7.70;2.83;;;12.80;99.90;;;;;;4919438;29;20139;-81
2022/11/08 08:39:24;;;;;;;7.97;2.38;;;12.80;99.90;;;;;;4921882;29;20043;-82
2022/11/08 08:41:50;;;;;;;6.75;2.63;;;12.80;99.90;;;;;;4906992;29;20043;-82
2022/11/08 08:44:15;;;;;;;6.82;2.60;;;12.90;99.90;;;;;;4922852;29;20043;-80
2022/11/08 08:46:41;;;;;;;8.23;2.60;;;12.90;99.90;;;;;;4938111;29;20039;-82
2022/11/08 08:49:06;;;;;;;6.60;2.63;;;12.90;99.90;;;;;;4931355;29;20055;-82
2022/11/08 08:51:32;;;;;;;8.55;3.20;;;12.90;99.90;;;;;;4906845;29;20133;-82
2022/11/08 08:53:58;;;;;;;6.57;2.40;;;13.00;99.90;;;;;;4906688;29;20043;-82
2022/11/08 08:56:23;;;;;;;5.43;2.13;;;13.00;99.90;;;;;;4938213;29;20126;-83
2022/11/08 08:58:49;;;;;;;6.03;2.45;;;13.10;99.90;;;;;;4938168;29;20469;-82
2022/11/08 09:01:15;;;;;;;4.95;2.20;;;13.20;99.90;;;;;;4938295;29;20098;-82
2022/11/08 09:03:40;;;;;;;6.53;2.55;;;13.20;99.90;;;;;;4930696;29;20039;-83
2022/11/08 09:06:06;;;;;;;5.43;2.05;;;13.30;99.90;;;;;;4911643;29;20403;-82
2022/11/08 09:08:32;;;;;;;6.30;2.58;;;13.30;99.90;;;;;;4938296;29;20047;-82
2022/11/08 09:10:59;;;;;;;5.45;2.17;;;13.40;99.90;;;;;;4937963;29;20035;-82
2022/11/08 09:13:26;;;;;;;4.30;2.03;;;13.50;99.90;;;;;;4953868;29;20069;-82
2022/11/08 09:15:53;;;;;;;4.00;1.80;;;13.50;99.90;;;;;;4938299;29;20031;-81
2022/11/08 09:18:19;;;;;;;3.28;1.60;;;13.60;99.90;;;;;;4937766;29;20039;-82
2022/11/08 09:20:46;;;;;;;6.13;1.88;;;13.60;99.90;;;;;;4935679;29;20075;-81
2022/11/08 09:23:13;;;;;;;4.78;1.80;;;13.60;99.90;;;;;;4927343;29;20039;-80
2022/11/08 09:25:38;;;;;;;3.38;1.60;;;13.70;99.90;;;;;;4921387;29;20518;-81
2022/11/08 09:28:05;;;;;;;4.57;1.60;;;13.70;99.90;;;;;;4921941;29;20035;-82
2022/11/08 09:30:31;;;;;;;5.00;1.80;;;13.70;99.90;;;;;;4920503;28;20039;-81
2022/11/08 09:32:56;;;;;;;2.80;2.00;;;13.70;99.90;;;;;;4953537;29;20049;-82
2022/11/08 09:35:22;;;;;;;3.22;1.70;;;13.70;99.90;;;;;;4921736;29;20039;-82
2022/11/08 09:37:48;;;;;;;3.92;1.80;;;13.70;99.90;;;;;;4936496;29;20102;-81
2022/11/08 09:40:22;;;;;;;3.13;1.80;;;13.80;99.90;;;;;;4921385;29;20039;-81
2022/11/08 09:43:07;;;;;;;3.55;1.63;;;13.80;99.90;;;;;;4930881;29;20127;-79
2022/11/08 09:45:46;;;;;;;4.65;1.80;;;13.80;99.90;;;;;;4937631;29;20140;-80
2022/11/08 09:48:37;;;;;;;3.65;1.58;;;13.80;99.90;;;;;;4929299;29;20564;-80
2022/11/08 09:51:10;;;;;;;4.80;2.17;;;13.80;99.90;;;;;;4955414;28;20054;-81
2022/11/08 09:53:51;;;;;;;5.47;2.30;;;13.80;99.90;;;;;;4957879;29;20391;-81
2022/11/08 09:56:27;;;;;;;3.75;1.80;;;13.80;99.90;;;;;;4941493;29;20047;-80
2022/11/08 09:58:53;;;;;;;;;;;13.80;99.90;;;;;;4950587;29;20044;-81
2022/11/08 10:01:21;;;;;;;5.05;1.98;;;13.80;99.90;;;;;;4940201;29;19922;-80
2022/11/08 10:03:51;;;;;;;6.15;2.20;;;13.80;99.90;;;;;;4920668;29;20134;-81
2022/11/08 10:06:38;;;;;;;5.15;2.03;;;13.90;99.90;;;;;;4940555;29;20070;-82
2022/11/08 10:09:32;;;;;;;4.82;2.00;;;13.80;99.90;;;;;;4940843;29;20097;-81
2022/11/08 10:12:07;;;;;;;6.32;2.10;;;13.90;99.90;;;;;;4945484;29;20039;-81
2022/11/08 10:15:01;;;;;;;5.63;2.30;;;13.90;99.90;;;;;;4940482;29;20047;-81
2022/11/08 10:17:37;;;;;;;5.20;2.00;;;13.90;99.90;;;;;;4915180;29;20507;-81
2022/11/08 10:20:03;;;;;;;3.67;1.88;;;13.90;99.90;;;;;;4936798;29;20047;-81
2022/11/08 10:22:37;;;;;;;4.20;1.70;;;13.90;99.90;;;;;;4955087;29;20051;-81
2022/11/08 10:25:19;;;;;;;4.53;2.00;;;13.80;99.90;;;;;;4954049;29;20044;-80
2022/11/08 10:27:45;;;;;;;5.80;2.00;;;13.80;99.90;;;;;;4940026;29;20050;-81
2022/11/08 10:30:25;;;;;;;4.47;1.67;;;13.80;99.90;;;;;;4940275;29;20039;-82
2022/11/08 10:32:55;;;;;;;6.28;2.10;;;13.80;99.90;;;;;;4939966;29;20043;-81
2022/11/08 10:35:35;;;;;;;4.68;1.95;;;13.80;99.90;;;;;;4930960;29;20043;-81
2022/11/08 10:38:09;;;;;;;3.63;1.70;;;13.80;99.90;;;;;;4948356;29;20514;-82
2022/11/08 10:40:56;;;;;;;5.35;1.75;;;13.90;99.90;;;;;;4940059;29;20047;-80
2022/11/08 10:43:31;;;;;;;2.95;1.95;;;13.80;99.90;;;;;;4937533;29;20047;-82
2022/11/08 10:45:57;;;;;;;3.75;1.50;;;13.80;99.90;;;;;;4940082;29;20043;-81
2022/11/08 10:48:24;;;;;;;7.05;2.13;;;13.70;99.90;;;;;;4949207;28;20051;-81
2022/11/08 10:50:51;;;;;;;4.97;1.80;;;13.70;99.90;;;;;;4940261;29;20566;-81
2022/11/08 10:53:25;;;;;;;2.67;1.85;;;13.80;99.90;;;;;;4938940;29;20039;-81
2022/11/08 10:55:57;;;;;;;3.25;2.00;;;13.80;99.90;;;;;;4954352;28;20047;-80
2022/11/08 10:58:39;;;;;;;5.00;1.80;;;13.90;99.90;;;;;;4953442;29;20098;-81
2022/11/08 11:01:20;;;;;;;4.40;1.90;;;13.90;99.90;;;;;;4954624;28;20054;-80
2022/11/08 11:03:47;;;;;;;5.22;1.92;;;14.00;99.90;;;;;;4963077;29;20077;-80
2022/11/08 11:06:20;;;;;;;4.38;1.60;;;14.00;99.90;;;;;;4962695;28;20047;-79
2022/11/08 11:09:20;;;;;;;5.47;2.30;;;14.10;99.90;;;;;;4949838;29;20070;-80
2022/11/08 11:11:54;;;;;;;3.95;1.73;;;14.20;99.90;;;;;;4944518;29;20050;-81
2022/11/08 11:14:22;;;;;;;3.10;1.52;;;14.10;99.90;;;;;;4952945;29;20471;-79
2022/11/08 11:17:02;;;;;;;3.08;1.80;;;14.20;99.90;;;;;;4938148;29;20465;-79
2022/11/08 11:19:29;;;;;;;4.93;1.98;;;14.30;99.90;;;;;;4968379;28;20046;-79
2022/11/08 11:21:56;;;;;;;4.78;1.80;;;14.30;99.90;;;;;;4937856;29;20047;-80
2022/11/08 11:24:23;;;;;;;3.53;1.55;;;14.30;99.90;;;;;;4937113;29;20055;-79
2022/11/08 11:27:04;;;;;;;3.35;1.80;;;14.30;99.90;;;;;;4938487;29;20043;-79
2022/11/08 11:29:32;;;;;;;5.32;1.70;;;14.30;99.90;;;;;;4952468;28;20043;-78
2022/11/08 11:32:31;;;;;;;8.25;1.77;;;14.30;99.90;;;;;;4937618;29;20183;-79
2022/11/08 11:35:00;;;;;;;6.80;1.90;;;14.30;99.90;;;;;;4930474;29;20098;-79
2022/11/08 11:37:35;;;;;;;4.25;1.73;;;14.40;99.90;;;;;;4954359;29;20086;-80
2022/11/08 11:40:17;;;;;;;4.88;2.03;;;14.40;99.90;;;;;;4937020;29;20053;-81
2022/11/08 11:42:45;;;;;;;5.25;2.08;;;14.40;99.90;;;;;;4938659;29;20050;-81
2022/11/08 11:45:28;;;;;;;5.38;1.63;;;14.40;99.90;;;;;;4943400;29;20464;-81
2022/11/08 11:48:03;;;;;;;3.80;1.60;;;14.50;99.90;;;;;;4938047;29;20373;-81
2022/11/08 11:50:38;;;;;;;5.20;1.90;;;14.50;99.90;;;;;;4935352;29;20079;-81
2022/11/08 11:53:21;;;;;;;4.15;1.88;;;14.50;99.90;;;;;;4935470;29;20094;-81
2022/11/08 11:56:13;;;;;;;4.55;1.85;;;14.60;99.90;;;;;;4932345;28;20468;-81
2022/11/08 11:59:07;;;;;;;5.57;1.80;;;14.60;99.90;;;;;;4919516;29;20062;-82
2022/11/08 12:01:51;;;;;;;4.55;1.70;;;14.60;99.90;;;;;;4935117;29;20043;-81
2022/11/08 12:04:29;;;;;;;4.43;1.80;;;14.70;99.90;;;;;;4938533;29;20075;-81
2022/11/08 12:06:59;;;;;;;3.55;1.92;;;14.70;99.90;;;;;;4938566;29;20039;-81
2022/11/08 12:09:41;;;;;;;3.88;1.60;;;14.60;99.90;;;;;;4933318;29;20373;-81
2022/11/08 12:12:35;;;;;;;3.17;1.40;;;14.70;99.90;;;;;;4949347;29;20071;-80
2022/11/08 12:15:23;;;;;;;4.97;1.80;;;14.70;99.90;;;;;;4935394;29;20043;-82
2022/11/08 12:18:24;;;;;;;5.97;1.70;;;14.70;99.90;;;;;;4934427;29;20126;-81
2022/11/08 12:20:58;;;;;;;4.25;1.88;;;14.60;99.90;;;;;;4935145;29;20067;-81
2022/11/08 12:23:26;;;;;;;4.60;1.70;;;14.60;99.90;;;;;;4938287;29;20050;-81
2022/11/08 12:26:05;;;;;;;5.10;2.00;;;14.60;99.90;;;;;;4938677;29;20043;-81
2022/11/08 12:28:59;;;;;;;2.40;1.50;;;14.60;99.90;;;;;;4937426;29;20050;-81
2022/11/08 12:31:32;;;;;;;3.08;1.63;;;14.60;99.90;;;;;;4936996;29;20563;-80
2022/11/08 12:34:09;;;;;;;5.05;1.60;;;14.60;99.90;;;;;;4950801;29;20044;-81
2022/11/08 12:36:51;;;;;;;6.88;2.05;;;14.60;99.90;;;;;;4937477;29;20044;-81
2022/11/08 12:39:39;;;;;;;4.75;2.15;;;14.60;99.90;;;;;;4938004;29;20054;-82
2022/11/08 12:42:23;;;;;;;3.47;1.55;;;14.60;99.90;;;;;;4937985;29;20074;-81
2022/11/08 12:45:08;;;;;;;2.95;1.58;;;14.70;99.90;;;;;;4953653;29;20054;-81
2022/11/08 12:48:00;;;;;;;5.07;1.98;;;14.70;99.90;;;;;;4932364;29;20090;-82
2022/11/08 12:50:41;;;;;;;4.75;1.50;;;14.80;99.90;;;;;;4936910;29;20070;-81
2022/11/08 12:53:29;;;;;;;5.38;1.95;;;14.80;99.90;;;;;;4950785;29;20047;-81
2022/11/08 12:55:56;;;;;;;3.80;1.80;;;14.90;99.90;;;;;;4944055;29;20047;-81
2022/11/08 12:58:32;;;;;;;6.70;2.10;;;14.80;99.90;;;;;;4942514;29;20039;-81
2022/11/08 13:01:01;;;;;;;;;;;14.90;99.90;;;;;;4937373;29;20376;-82
2022/11/08 13:03:55;;;;;;;3.92;1.90;;;14.90;99.90;;;;;;4952960;29;20255;-81
2022/11/08 13:06:27;;;;;;;5.40;1.90;;;15.00;99.90;;;;;;4944117;29;20082;-81
2022/11/08 13:09:11;;;;;;;4.22;1.73;;;15.10;99.90;;;;;;4953722;29;20523;-81
2022/11/08 13:12:01;;;;;;;3.28;1.52;;;15.10;99.90;;;;;;4951768;29;20127;-82
2022/11/08 13:14:27;;;;;;;3.78;1.80;;;15.10;99.90;;;;;;4934671;29;20067;-82
2022/11/08 13:17:21;;;;;;;3.33;1.70;;;15.10;99.90;;;;;;4910692;29;20559;-82